createdAt,value
2022-08-10T00:00:55.690Z,12.97
2022-08-10T00:03:24.716Z,15.77
2022-08-10T00:05:54.781Z,23.87
2022-08-10T00:08:24.948Z,343.70
2022-08-10T00:10:53.022Z,343.80
2022-08-10T00:13:20.858Z,342.40
2022-08-10T00:15:53.637Z,344.40
2022-08-10T00:18:35.223Z,718.37
2022-08-10T00:21:04.802Z,986.53
2022-08-10T00:23:32.442Z,999.70
2022-08-10T00:26:00.317Z,778.97
2022-08-10T00:28:27.947Z,977.43
2022-08-10T00:30:55.595Z,776.87
2022-08-10T00:33:24.728Z,808.93
2022-08-10T00:35:52.780Z,266.57
2022-08-10T00:38:20.803Z,775.47
2022-08-10T00:40:48.446Z,987.30
2022-08-10T00:43:23.599Z,475.63
2022-08-10T00:45:59.859Z,770.57
2022-08-10T00:48:30.109Z,260.93
2022-08-10T00:50:58.815Z,980.47
2022-08-10T00:53:26.535Z,766.40
2022-08-10T00:57:12.603Z,765.83
2022-08-10T00:58:41.803Z,771.77
2022-08-10T01:01:23.505Z,984.47
2022-08-10T01:04:36.368Z,771.23
2022-08-10T01:06:51.695Z,475.67
2022-08-10T01:09:24.245Z,770.90
2022-08-10T01:12:40.232Z,972.73
2022-08-10T01:14:51.498Z,769.53
2022-08-10T01:17:23.966Z,999.90
2022-08-10T01:20:30.268Z,787.00
2022-08-10T01:23:26.922Z,944.97
2022-08-10T01:26:10.506Z,970.00
2022-08-10T01:28:47.503Z,770.30
2022-08-10T01:31:21.413Z,768.77
2022-08-10T01:33:59.089Z,982.83
2022-08-10T01:36:32.234Z,768.67
2022-08-10T01:39:03.778Z,971.50
2022-08-10T01:41:46.143Z,773.57
2022-08-10T01:44:16.563Z,259.37
2022-08-10T01:46:56.918Z,990.37
2022-08-10T01:49:25.072Z,778.30
2022-08-10T01:51:54.521Z,776.20
2022-08-10T01:54:24.127Z,990.93
2022-08-10T01:56:54.323Z,775.03
2022-08-10T01:59:24.955Z,502.33
2022-08-10T02:01:57.169Z,979.23
2022-08-10T02:04:26.564Z,999.90
2022-08-10T02:06:55.462Z,982.73
2022-08-10T02:09:26.479Z,775.63
2022-08-10T02:12:07.336Z,782.53
2022-08-10T02:14:38.410Z,997.07
2022-08-10T02:17:58.232Z,785.07
2022-08-10T02:19:59.998Z,999.90
2022-08-10T02:22:38.260Z,782.03
2022-08-10T02:25:08.571Z,785.30
2022-08-10T02:27:37.446Z,783.67
2022-08-10T02:30:07.052Z,790.40
2022-08-10T02:32:38.483Z,875.97
2022-08-10T02:35:13.976Z,789.47
2022-08-10T02:37:51.442Z,992.47
2022-08-10T02:45:02.153Z,787.67
2022-08-10T02:45:21.688Z,783.43
2022-08-10T02:46:03.328Z,790.43
2022-08-10T02:48:38.910Z,990.77
2022-08-10T02:51:11.319Z,785.93
2022-08-10T02:53:54.862Z,786.47
2022-08-10T02:56:29.844Z,789.83
2022-08-10T02:59:00.300Z,791.30
2022-08-10T03:01:32.771Z,999.90
2022-08-10T03:04:04.229Z,996.13
2022-08-10T03:06:35.978Z,796.63
2022-08-10T03:09:05.425Z,787.47
2022-08-10T03:12:37.428Z,606.50
2022-08-10T03:14:23.084Z,999.90
2022-08-10T03:16:51.508Z,781.23
2022-08-10T03:20:33.337Z,994.63
2022-08-10T03:22:09.735Z,999.90
2022-08-10T03:24:37.747Z,997.67
2022-08-10T03:27:06.336Z,786.70
2022-08-10T03:30:29.866Z,887.13
2022-08-10T03:32:23.124Z,999.90
2022-08-10T03:34:52.627Z,999.90
2022-08-10T03:37:20.458Z,999.90
2022-08-10T03:39:48.218Z,999.90
2022-08-10T03:42:16.400Z,999.90
2022-08-10T03:44:48.657Z,999.90
2022-08-10T03:47:18.857Z,999.90
2022-08-10T03:49:49.028Z,999.90
2022-08-10T03:52:19.284Z,999.90
2022-08-10T03:54:51.468Z,999.90
2022-08-10T03:57:19.426Z,999.90
2022-08-10T03:59:47.522Z,999.90
2022-08-10T04:02:46.582Z,999.90
2022-08-10T04:05:03.322Z,999.90
2022-08-10T04:07:32.392Z,999.90
2022-08-10T04:09:59.995Z,999.90
2022-08-10T04:12:27.728Z,999.90
2022-08-10T04:14:55.380Z,999.90
2022-08-10T04:17:57.459Z,999.90
2022-08-10T04:20:18.000Z,999.90
2022-08-10T04:22:49.772Z,999.90
2022-08-10T04:25:17.775Z,999.90
2022-08-10T04:27:46.435Z,999.90
2022-08-10T04:30:14.235Z,999.90
2022-08-10T04:32:42.451Z,999.90
2022-08-10T04:35:11.540Z,999.90
2022-08-10T04:37:46.916Z,999.90
2022-08-10T04:40:28.891Z,999.90
2022-08-10T04:43:02.252Z,999.90
2022-08-10T04:45:49.043Z,999.90
2022-08-10T04:48:40.781Z,999.90
2022-08-10T04:51:10.956Z,999.90
2022-08-10T04:54:04.441Z,999.90
2022-08-10T04:56:34.731Z,999.90
2022-08-10T04:59:02.361Z,999.90
2022-08-10T05:02:21.954Z,999.90
2022-08-10T05:04:35.447Z,999.90
2022-08-10T05:07:06.880Z,999.90
2022-08-10T05:10:01.082Z,999.90
2022-08-10T05:12:23.792Z,999.90
2022-08-10T05:14:52.175Z,999.90
2022-08-10T05:17:20.853Z,999.90
2022-08-10T05:20:03.454Z,351.43
2022-08-10T05:22:37.309Z,345.50
2022-08-10T05:25:06.846Z,345.63
2022-08-10T05:27:35.888Z,344.70
2022-08-10T05:30:04.471Z,345.40
2022-08-10T05:32:34.441Z,343.47
2022-08-10T05:35:20.645Z,343.33
2022-08-10T05:38:11.790Z,344.33
2022-08-10T05:40:37.624Z,346.20
2022-08-10T05:43:06.691Z,24.20
2022-08-10T05:45:34.333Z,466.40
2022-08-10T05:48:41.801Z,999.90
2022-08-10T05:51:09.859Z,52.47
2022-08-10T05:53:59.843Z,33.57
2022-08-10T05:56:26.330Z,94.27
2022-08-10T05:58:55.448Z,230.93
2022-08-10T06:01:25.002Z,153.83
2022-08-10T06:03:58.439Z,101.33
2022-08-10T06:06:27.152Z,192.23
2022-08-10T06:08:55.059Z,212.53
2022-08-10T06:12:26.937Z,210.53
2022-08-10T06:14:31.351Z,199.50
2022-08-10T06:17:01.073Z,498.30
2022-08-10T06:19:29.213Z,187.80
2022-08-10T06:22:01.264Z,999.90
2022-08-10T06:24:31.105Z,999.90
2022-08-10T06:26:59.079Z,999.90
2022-08-10T06:29:29.253Z,999.90
2022-08-10T06:31:57.004Z,999.90
2022-08-10T06:34:28.446Z,999.90
2022-08-10T06:36:59.478Z,999.90
2022-08-10T06:39:36.310Z,999.90
2022-08-10T06:42:15.865Z,999.90
2022-08-10T06:44:54.483Z,999.90
2022-08-10T06:47:25.472Z,148.73
2022-08-10T06:49:59.874Z,191.60
2022-08-10T06:52:29.761Z,450.60
2022-08-10T06:54:58.568Z,999.90
2022-08-10T06:57:29.440Z,999.90
2022-08-10T07:00:01.046Z,143.70
2022-08-10T07:02:36.846Z,688.60
2022-08-10T07:05:06.615Z,282.90
2022-08-10T07:07:37.562Z,686.53
2022-08-10T07:10:06.051Z,999.90
2022-08-10T07:12:35.439Z,69.77
2022-08-10T07:15:05.579Z,54.83
2022-08-10T07:17:38.796Z,55.47
2022-08-10T07:20:09.722Z,54.73
2022-08-10T07:23:01.413Z,56.13
2022-08-10T07:25:27.471Z,54.10
2022-08-10T07:27:58.781Z,61.93
2022-08-10T07:30:31.464Z,53.57
2022-08-10T07:33:00.174Z,51.50
2022-08-10T07:35:32.056Z,60.63
2022-08-10T07:38:05.150Z,55.63
2022-08-10T07:40:33.937Z,55.73
2022-08-10T07:43:02.532Z,53.53
2022-08-10T07:45:33.143Z,52.77
2022-08-10T07:48:07.163Z,60.83
2022-08-10T07:50:37.722Z,51.23
2022-08-10T07:53:05.973Z,59.33
2022-08-10T07:56:01.869Z,53.83
2022-08-10T07:58:23.127Z,50.63
2022-08-10T08:00:53.392Z,52.80
2022-08-10T08:03:22.415Z,67.07
2022-08-10T08:05:57.657Z,69.10
2022-08-10T08:08:31.834Z,74.40
2022-08-10T08:11:00.020Z,56.10
2022-08-10T08:13:27.916Z,20.23
2022-08-10T08:16:18.225Z,86.33
2022-08-10T08:19:03.943Z,124.57
2022-08-10T08:24:10.565Z,157.80
2022-08-10T08:24:32.644Z,53.43
2022-08-10T08:27:02.373Z,152.63
2022-08-10T08:29:30.600Z,30.47
2022-08-10T08:32:02.455Z,156.07
2022-08-10T08:34:31.468Z,136.03
2022-08-10T08:37:00.672Z,73.63
2022-08-10T08:39:28.384Z,138.50
2022-08-10T08:42:09.663Z,76.50
2022-08-10T08:44:49.141Z,135.37
2022-08-10T08:48:04.609Z,56.87
2022-08-10T08:50:35.636Z,49.70
2022-08-10T08:53:21.585Z,20.30
2022-08-10T08:56:06.395Z,275.47
2022-08-10T08:58:53.708Z,162.07
2022-08-10T09:01:38.290Z,274.17
2022-08-10T09:04:46.828Z,105.70
2022-08-10T09:08:00.300Z,108.23
2022-08-10T09:10:39.916Z,130.50
2022-08-10T09:13:11.575Z,103.17
2022-08-10T09:15:42.266Z,96.03
2022-08-10T09:18:15.022Z,317.27
2022-08-10T09:20:49.165Z,866.43
2022-08-10T09:24:05.267Z,487.23
2022-08-10T09:26:15.912Z,182.57
2022-08-10T09:28:44.265Z,511.50
2022-08-10T09:31:28.770Z,506.60
2022-08-10T09:36:28.094Z,579.20
2022-08-10T09:37:02.108Z,567.07
2022-08-10T09:40:06.965Z,132.67
2022-08-10T09:42:29.956Z,533.30
2022-08-10T09:45:05.223Z,184.43
2022-08-10T09:48:00.844Z,561.87
2022-08-10T09:50:50.082Z,201.00
2022-08-10T09:53:25.770Z,606.67
2022-08-10T09:56:19.070Z,694.27
2022-08-10T09:58:51.712Z,999.90
2022-08-10T10:02:02.417Z,209.00
2022-08-10T10:04:40.465Z,668.93
2022-08-10T10:07:10.840Z,227.60
2022-08-10T10:09:46.866Z,681.97
2022-08-10T10:12:22.605Z,609.23
2022-08-10T10:15:24.462Z,411.60
2022-08-10T10:18:15.268Z,155.37
2022-08-10T10:20:47.420Z,999.90
2022-08-10T10:23:19.254Z,167.53
2022-08-10T10:25:55.438Z,168.20
2022-08-10T10:29:11.341Z,167.47
2022-08-10T10:31:28.875Z,560.90
2022-08-10T10:34:15.519Z,576.37
2022-08-10T10:36:45.221Z,574.70
2022-08-10T10:39:14.890Z,49.97
2022-08-10T10:41:55.896Z,60.17
2022-08-10T10:44:42.323Z,999.90
2022-08-10T10:47:29.508Z,999.90
2022-08-10T10:50:05.255Z,999.90
2022-08-10T10:52:41.999Z,999.90
2022-08-10T10:55:16.398Z,999.90
2022-08-10T10:58:00.968Z,999.90
2022-08-10T11:00:38.573Z,999.90
2022-08-10T11:03:35.812Z,999.90
2022-08-10T11:06:11.387Z,999.90
2022-08-10T11:08:44.116Z,999.90
2022-08-10T11:12:01.184Z,999.90
2022-08-10T11:14:25.129Z,999.90
2022-08-10T11:17:01.704Z,999.90
2022-08-10T11:20:02.036Z,999.90
2022-08-10T11:22:31.431Z,999.90
2022-08-10T11:25:11.175Z,999.90
2022-08-10T11:27:44.075Z,999.90
2022-08-10T11:30:15.044Z,999.90
2022-08-10T11:32:48.330Z,999.90
2022-08-10T11:35:23.805Z,999.90
2022-08-10T11:38:34.380Z,999.90
2022-08-10T11:40:52.216Z,999.90
2022-08-10T11:43:22.603Z,999.90
2022-08-10T11:45:56.267Z,999.90
2022-08-10T11:48:54.289Z,999.90
2022-08-10T11:51:26.492Z,999.90
2022-08-10T11:53:58.993Z,999.90
2022-08-10T11:56:30.838Z,999.90
2022-08-10T11:59:17.036Z,999.90
2022-08-10T12:01:48.187Z,999.90
2022-08-10T12:04:16.476Z,999.90
2022-08-10T12:07:00.320Z,999.90
2022-08-10T12:10:10.417Z,999.90
2022-08-10T12:12:17.280Z,999.90
2022-08-10T12:14:49.703Z,999.90
2022-08-10T12:17:23.312Z,999.90
2022-08-10T12:20:02.635Z,999.90
2022-08-10T12:22:34.682Z,999.90
2022-08-10T12:25:05.494Z,999.90
2022-08-10T12:27:39.862Z,999.90
2022-08-10T12:30:09.572Z,999.90
2022-08-10T12:32:43.320Z,999.90
2022-08-10T12:35:21.989Z,999.90
2022-08-10T12:38:04.133Z,999.90
2022-08-10T12:40:36.435Z,999.90
2022-08-10T12:43:12.957Z,999.90
2022-08-10T12:46:06.739Z,999.90
2022-08-10T12:48:38.708Z,999.90
2022-08-10T12:51:09.106Z,999.90
2022-08-10T12:53:42.908Z,999.90
2022-08-10T12:56:10.814Z,999.90
2022-08-10T12:58:59.274Z,999.90
2022-08-10T13:01:30.449Z,999.90
2022-08-10T13:04:26.799Z,999.90
2022-08-10T13:06:54.647Z,999.90
2022-08-10T13:09:23.061Z,999.90
2022-08-10T13:12:36.231Z,999.90
2022-08-10T13:14:49.287Z,999.90
2022-08-10T13:17:23.157Z,999.90
2022-08-10T13:19:55.085Z,999.90
2022-08-10T13:22:26.358Z,999.90
2022-08-10T13:24:56.331Z,999.90
2022-08-10T13:28:01.389Z,999.90
2022-08-10T13:30:15.560Z,999.90
2022-08-10T13:32:49.344Z,999.90
2022-08-10T13:35:58.721Z,999.90
2022-08-10T13:38:30.787Z,999.90
2022-08-10T13:40:58.884Z,999.90
2022-08-10T13:43:27.165Z,999.90
2022-08-10T13:45:56.018Z,999.90
2022-08-10T13:48:24.661Z,999.90
2022-08-10T13:50:58.261Z,999.90
2022-08-10T13:53:31.155Z,999.90
2022-08-10T13:55:59.102Z,999.90
2022-08-10T13:58:30.089Z,999.90
2022-08-10T14:00:59.247Z,999.90
2022-08-10T14:03:27.201Z,999.90
2022-08-10T14:05:57.411Z,999.90
2022-08-10T14:08:26.826Z,999.90
2022-08-10T14:11:05.396Z,999.90
2022-08-10T14:13:43.917Z,999.90
2022-08-10T14:16:12.302Z,999.90
2022-08-10T14:18:42.108Z,999.90
2022-08-10T14:21:11.593Z,999.90
2022-08-10T14:23:48.611Z,999.90
2022-08-10T14:26:23.120Z,999.90
2022-08-10T14:28:55.618Z,999.90
2022-08-10T14:31:25.000Z,999.90
2022-08-10T14:33:55.569Z,999.90
2022-08-10T14:36:31.827Z,999.90
2022-08-10T14:38:59.844Z,999.90
2022-08-10T14:42:03.073Z,999.90
2022-08-10T14:44:18.288Z,999.90
2022-08-10T14:46:51.546Z,999.90
2022-08-10T14:49:26.329Z,999.90
2022-08-10T14:52:00.569Z,999.90
2022-08-10T14:54:29.913Z,999.90
2022-08-10T14:56:58.710Z,999.90
2022-08-10T14:59:45.931Z,999.90
2022-08-10T15:02:40.805Z,999.90
2022-08-10T15:05:09.127Z,999.90
2022-08-10T15:07:38.942Z,999.90
2022-08-10T15:10:08.203Z,999.90
2022-08-10T15:12:36.977Z,999.90
2022-08-10T15:15:08.571Z,999.90
2022-08-10T15:17:39.477Z,999.90
2022-08-10T15:20:14.713Z,999.90
2022-08-10T15:22:47.469Z,999.90
2022-08-10T15:25:24.481Z,999.90
2022-08-10T15:27:56.121Z,999.90
2022-08-10T15:30:31.421Z,999.90
2022-08-10T15:33:21.478Z,999.90
2022-08-10T15:36:24.949Z,999.90
2022-08-10T15:38:59.761Z,999.90
2022-08-10T15:41:57.826Z,999.90
2022-08-10T15:44:36.540Z,999.90
2022-08-10T15:47:07.116Z,999.90
2022-08-10T15:49:37.564Z,999.90
2022-08-10T15:52:39.948Z,999.90
2022-08-10T15:55:44.143Z,999.90
2022-08-10T15:58:05.913Z,999.90
2022-08-10T16:00:34.825Z,999.90
2022-08-10T16:03:08.825Z,999.90
2022-08-10T16:06:02.636Z,999.90
2022-08-10T16:08:37.607Z,999.90
2022-08-10T16:11:37.916Z,999.90
2022-08-10T16:14:16.582Z,999.90
2022-08-10T16:16:48.175Z,999.90
2022-08-10T16:19:24.010Z,999.90
2022-08-10T16:21:57.154Z,999.90
2022-08-10T16:24:25.743Z,999.90
2022-08-10T16:26:55.596Z,999.90
2022-08-10T16:29:25.546Z,999.90
2022-08-10T16:31:55.907Z,999.90
2022-08-10T16:34:24.783Z,999.90
2022-08-10T16:36:54.866Z,999.90
2022-08-10T16:39:56.959Z,999.90
2022-08-10T16:42:19.115Z,999.90
2022-08-10T16:44:52.477Z,999.90
2022-08-10T16:47:27.364Z,999.90
2022-08-10T16:49:56.464Z,999.90
2022-08-10T16:52:25.031Z,999.90
2022-08-10T16:54:53.920Z,999.90
2022-08-10T16:57:24.196Z,999.90
2022-08-10T16:59:54.941Z,999.90
2022-08-10T17:02:24.279Z,999.90
2022-08-10T17:04:52.943Z,999.90
2022-08-10T17:07:30.650Z,999.90
2022-08-10T17:10:07.567Z,999.90
2022-08-10T17:12:40.293Z,999.90
2022-08-10T17:15:11.730Z,999.90
2022-08-10T17:17:46.263Z,999.90
2022-08-10T17:20:30.578Z,999.90
2022-08-10T17:23:02.625Z,999.90
2022-08-10T17:25:48.709Z,999.90
2022-08-10T17:28:32.977Z,999.90
2022-08-10T17:31:23.518Z,999.90
2022-08-10T17:33:57.034Z,999.90
2022-08-10T17:36:26.279Z,999.90
2022-08-10T17:38:54.100Z,999.90
2022-08-10T17:41:25.247Z,999.90
2022-08-10T17:44:02.571Z,999.90
2022-08-10T17:46:33.646Z,999.90
2022-08-10T17:49:06.676Z,999.90
2022-08-10T17:51:35.037Z,999.90
2022-08-10T17:54:06.929Z,999.90
2022-08-10T17:56:35.664Z,999.90
2022-08-10T17:59:17.278Z,999.90
2022-08-10T18:02:01.276Z,999.90
2022-08-10T18:04:41.395Z,999.90
2022-08-10T18:07:11.400Z,999.90
2022-08-10T18:09:41.716Z,999.90
2022-08-10T18:12:18.375Z,999.90
2022-08-10T18:14:48.579Z,999.90
2022-08-10T18:17:19.575Z,999.90
2022-08-10T18:19:48.396Z,999.90
2022-08-10T18:22:17.159Z,999.90
2022-08-10T18:24:45.454Z,999.90
2022-08-10T18:27:14.439Z,999.90
2022-08-10T18:29:45.166Z,999.90
2022-08-10T18:32:15.803Z,999.90
2022-08-10T18:34:44.048Z,999.90
2022-08-10T18:37:20.753Z,999.90
2022-08-10T18:39:50.011Z,999.90
2022-08-10T18:42:20.997Z,999.90
2022-08-10T18:44:52.964Z,999.90
2022-08-10T18:47:30.226Z,999.90
2022-08-10T18:50:01.128Z,999.90
2022-08-10T18:52:31.872Z,999.90
2022-08-10T18:55:14.294Z,999.90
2022-08-10T18:57:51.871Z,999.90
2022-08-10T19:00:20.298Z,999.90
2022-08-10T19:03:12.258Z,999.90
2022-08-10T19:05:58.587Z,999.90
2022-08-10T19:08:49.120Z,999.90
2022-08-10T19:11:24.532Z,999.90
2022-08-10T19:13:59.976Z,999.90
2022-08-10T19:16:38.836Z,999.90
2022-08-10T19:19:26.923Z,999.90
2022-08-10T19:21:59.161Z,999.90
2022-08-10T19:24:29.176Z,999.90
2022-08-10T19:27:03.579Z,116.67
2022-08-10T19:30:08.342Z,172.63
2022-08-10T19:32:30.395Z,397.37
2022-08-10T19:35:04.642Z,999.90
2022-08-10T19:37:38.159Z,139.83
2022-08-10T19:40:15.855Z,783.87
2022-08-10T19:42:49.731Z,509.87
2022-08-10T19:45:59.128Z,796.27
2022-08-10T19:48:13.133Z,796.67
2022-08-10T19:50:45.918Z,949.00
2022-08-10T19:53:24.966Z,794.37
2022-08-10T19:56:01.906Z,800.70
2022-08-10T19:58:49.624Z,796.73
2022-08-10T20:01:18.117Z,140.30
2022-08-10T20:03:50.345Z,289.47
2022-08-10T20:06:23.000Z,262.83
2022-08-10T20:08:56.541Z,295.83
2022-08-10T20:11:44.835Z,140.83
2022-08-10T20:14:22.211Z,137.00
2022-08-10T20:16:52.597Z,960.80
2022-08-10T20:19:54.062Z,815.53
2022-08-10T20:22:29.327Z,964.43
2022-08-10T20:25:01.534Z,262.47
2022-08-10T20:28:06.774Z,263.03
2022-08-10T20:30:22.872Z,802.40
2022-08-10T20:32:54.576Z,799.90
2022-08-10T20:35:26.436Z,799.30
2022-08-10T20:38:03.576Z,932.33
2022-08-10T20:40:40.374Z,285.63
2022-08-10T20:43:17.002Z,996.20
2022-08-10T20:46:07.414Z,287.07
2022-08-10T20:48:39.187Z,803.53
2022-08-10T20:51:09.604Z,808.17
2022-08-10T20:53:43.621Z,996.47
2022-08-10T20:56:16.526Z,802.80
2022-08-10T20:58:59.734Z,804.87
2022-08-10T21:02:07.330Z,253.63
2022-08-10T21:04:44.939Z,289.57
2022-08-10T21:07:50.557Z,809.20
2022-08-10T21:10:31.828Z,139.80
2022-08-10T21:13:10.401Z,996.30
2022-08-10T21:15:59.445Z,999.90
2022-08-10T21:18:45.056Z,287.47
2022-08-10T21:21:37.733Z,806.13
2022-08-10T21:24:13.535Z,805.07
2022-08-10T21:26:51.221Z,250.97
2022-08-10T21:29:39.809Z,997.77
2022-08-10T21:32:18.460Z,247.10
2022-08-10T21:35:01.056Z,999.90
2022-08-10T21:37:39.732Z,999.90
2022-08-10T21:40:34.656Z,999.90
2022-08-10T21:43:45.937Z,999.90
2022-08-10T21:46:38.601Z,999.53
2022-08-10T21:49:53.142Z,988.10
2022-08-10T21:52:43.260Z,947.87
2022-08-10T21:55:56.963Z,964.27
2022-08-10T21:58:49.350Z,944.30
2022-08-10T22:01:44.235Z,233.17
2022-08-10T22:04:29.691Z,229.77
2022-08-10T22:07:18.111Z,143.57
2022-08-10T22:10:07.391Z,177.67
2022-08-10T22:12:57.087Z,258.43
2022-08-10T22:16:10.096Z,163.23
2022-08-10T22:19:01.493Z,197.60
2022-08-10T22:21:58.915Z,240.70
2022-08-10T22:24:51.296Z,159.87
2022-08-10T22:27:48.128Z,162.90
2022-08-10T22:30:35.029Z,147.20
2022-08-10T22:33:35.658Z,154.33
2022-08-10T22:36:43.779Z,172.00
2022-08-10T22:40:12.562Z,77.87
2022-08-10T22:42:58.785Z,182.17
2022-08-10T22:45:53.978Z,726.43
2022-08-10T22:48:40.534Z,128.77
2022-08-10T22:51:12.440Z,882.97
2022-08-10T22:54:00.734Z,951.43
2022-08-10T22:56:46.023Z,260.20
2022-08-10T22:59:14.447Z,232.27
2022-08-10T23:02:08.149Z,262.43
2022-08-10T23:04:44.745Z,741.53
2022-08-10T23:07:20.496Z,739.83
2022-08-10T23:09:52.873Z,301.83
2022-08-10T23:12:24.965Z,280.03
2022-08-10T23:15:13.520Z,231.53
2022-08-10T23:18:00.656Z,232.10
2022-08-10T23:20:31.507Z,740.63
2022-08-10T23:23:08.934Z,963.53
2022-08-10T23:25:43.764Z,746.90
2022-08-10T23:28:39.364Z,797.37
2022-08-10T23:31:14.442Z,928.53
2022-08-10T23:33:42.500Z,744.13
2022-08-10T23:36:33.955Z,745.17
2022-08-10T23:39:26.770Z,432.93
2022-08-10T23:41:55.736Z,131.67
2022-08-10T23:44:23.680Z,229.93
2022-08-10T23:46:53.459Z,261.00
2022-08-10T23:49:21.151Z,737.97
2022-08-10T23:51:54.920Z,456.43
2022-08-10T23:54:25.190Z,739.80
2022-08-10T23:57:00.909Z,422.17
2022-08-10T23:59:31.637Z,740.87
